createdAt,value
2019-03-19T00:01:24.160Z,4.1
2019-03-19T00:18:11.590Z,4.1
2019-03-19T00:34:59.233Z,4.1
2019-03-19T00:51:46.342Z,4.0
2019-03-19T01:08:33.625Z,4.0
2019-03-19T01:25:20.816Z,4.0
2019-03-19T01:42:07.881Z,4.0
2019-03-19T01:58:55.018Z,4.0
2019-03-19T02:15:41.951Z,4.0
2019-03-19T02:32:29.037Z,4.0
2019-03-19T02:49:15.998Z,3.9
2019-03-19T03:06:02.828Z,3.9
2019-03-19T03:22:49.659Z,3.9
2019-03-19T03:39:36.586Z,3.9
2019-03-19T03:56:23.252Z,3.9
2019-03-19T04:13:09.917Z,3.9
2019-03-19T04:29:56.499Z,3.9
2019-03-19T04:46:43.233Z,3.9
2019-03-19T05:03:29.784Z,3.9
2019-03-19T05:20:16.219Z,3.9
2019-03-19T05:37:02.598Z,3.9
2019-03-19T05:53:48.957Z,3.8
2019-03-19T06:10:35.182Z,3.9
2019-03-19T06:27:21.495Z,4.0
2019-03-19T06:44:07.891Z,4.1
2019-03-19T07:00:54.409Z,4.3
2019-03-19T07:17:41.689Z,4.4
2019-03-19T07:34:29.010Z,4.5
2019-03-19T07:51:16.340Z,4.5
2019-03-19T08:08:04.188Z,4.6
2019-03-19T08:24:51.740Z,4.6
2019-03-19T08:41:39.760Z,4.6
2019-03-19T08:58:27.960Z,4.6
2019-03-19T09:15:16.286Z,4.6
2019-03-19T09:32:05.205Z,4.5
2019-03-19T09:48:53.080Z,4.5
2019-03-19T10:05:41.612Z,4.6
2019-03-19T10:22:30.082Z,4.6
2019-03-19T10:39:19.001Z,4.5
2019-03-19T10:56:07.707Z,4.6
2019-03-19T11:12:56.518Z,4.6
2019-03-19T11:29:45.318Z,4.6
2019-03-19T11:46:34.251Z,4.6
2019-03-19T12:03:23.125Z,4.6
2019-03-19T12:20:12.324Z,4.6
2019-03-19T12:37:01.729Z,4.6
2019-03-19T12:53:51.183Z,4.6
2019-03-19T13:10:40.428Z,4.6
2019-03-19T13:27:30.312Z,4.6
2019-03-19T13:44:19.371Z,4.6
2019-03-19T14:01:08.652Z,4.6
2019-03-19T14:17:58.984Z,4.5
2019-03-19T14:34:47.381Z,4.6
2019-03-19T14:51:36.717Z,4.5
2019-03-19T15:08:25.946Z,4.5
2019-03-19T15:25:15.662Z,4.5
2019-03-19T15:42:04.107Z,4.5
2019-03-19T15:58:53.219Z,4.5
2019-03-19T16:15:42.285Z,4.5
2019-03-19T16:32:31.485Z,4.5
2019-03-19T16:49:20.583Z,4.5
2019-03-19T17:06:10.079Z,4.5
2019-03-19T17:22:58.902Z,4.4
2019-03-19T17:39:47.697Z,4.4
2019-03-19T17:56:36.601Z,4.4
2019-03-19T18:13:25.278Z,4.4
2019-03-19T18:30:14.197Z,4.3
2019-03-19T18:47:03.044Z,4.3
2019-03-19T19:03:51.746Z,4.3
2019-03-19T19:20:41.117Z,4.3
2019-03-19T19:37:29.504Z,4.3
2019-03-19T19:54:17.627Z,4.2
2019-03-19T20:11:06.271Z,4.2
2019-03-19T20:27:53.490Z,4.2
2019-03-19T20:44:41.502Z,4.2
2019-03-19T21:01:29.621Z,4.2
2019-03-19T21:18:17.437Z,4.2
2019-03-19T21:35:06.011Z,4.2
2019-03-19T21:51:53.286Z,4.2
2019-03-19T22:08:41.298Z,4.2
2019-03-19T22:25:29.102Z,4.1
2019-03-19T22:42:17.213Z,4.1
2019-03-19T22:59:05.223Z,4.1
2019-03-19T23:15:53.175Z,4.1
2019-03-19T23:32:41.031Z,4.1
2019-03-19T23:49:28.814Z,4.1
